Time;durP1;ratioP1;P1;durP2;ratioP2;P2;SDS_P1;SDS_P2;PMS_P1;PMS_P2;Temp;Humidity;BMP_temperature;BMP_pressure;BME280_temperature;BME280_humidity;BME280_pressure;Samples;Min_cycle;Max_cycle;Signal;HPM_P1;HPM_P2
2020/02/05 00:00:28;;;;;;;1.29;1.19;;;;;;;19.79;41.21;101432.09;;;;-66
2020/02/05 00:05:27;;;;;;;1.50;1.40;;;;;;;19.77;41.10;101425.77;;;;-65
2020/02/05 00:08:28;;;;;;;1.38;1.28;;;;;;;19.76;41.14;101424.19;;;;-66
2020/02/05 00:11:27;;;;;;;1.40;1.30;;;;;;;19.73;41.20;101432.61;;;;-65
2020/02/05 00:14:27;;;;;;;1.43;1.33;;;;;;;19.72;41.14;101435.45;;;;-66
2020/02/05 00:17:27;;;;;;;1.39;1.29;;;;;;;19.70;41.13;101434.11;;;;-66
2020/02/05 00:20:27;;;;;;;1.45;1.30;;;;;;;19.70;41.09;101443.28;;;;-66
2020/02/05 00:23:27;;;;;;;1.49;1.39;;;;;;;19.67;41.20;101452.03;;;;-64
2020/02/05 00:26:27;;;;;;;1.94;1.30;;;;;;;19.66;41.17;101455.27;;;;-65
2020/02/05 00:29:27;;;;;;;1.39;1.29;;;;;;;19.65;41.17;101454.55;;;;-66
2020/02/05 00:35:27;;;;;;;1.35;1.25;;;;;;;19.63;41.14;101460.39;;;;-65
2020/02/05 00:38:27;;;;;;;1.53;1.32;;;;;;;19.60;41.10;101462.34;;;;-67
2020/02/05 00:41:27;;;;;;;1.36;1.26;;;;;;;19.59;41.12;101472.73;;;;-65
2020/02/05 00:44:27;;;;;;;2.32;1.30;;;;;;;19.58;41.15;101483.83;;;;-64
2020/02/05 00:47:27;;;;;;;1.40;1.30;;;;;;;19.56;41.18;101485.11;;;;-65
2020/02/05 00:50:27;;;;;;;1.30;1.20;;;;;;;19.55;41.12;101483.98;;;;-66
2020/02/05 00:53:27;;;;;;;1.39;1.29;;;;;;;19.54;41.19;101483.08;;;;-66
2020/02/05 00:56:27;;;;;;;1.40;1.30;;;;;;;19.53;41.10;101485.86;;;;-65
2020/02/05 00:59:27;;;;;;;1.33;1.23;;;;;;;19.52;41.19;101495.02;;;;-66
2020/02/05 01:02:27;;;;;;;1.31;1.21;;;;;;;19.50;41.15;101494.12;;;;-64
2020/02/05 01:05:27;;;;;;;1.39;1.29;;;;;;;19.49;41.18;101502.77;;;;-66
2020/02/05 01:08:27;;;;;;;1.63;1.40;;;;;;;19.48;41.13;101510.88;;;;-67
2020/02/05 01:11:27;;;;;;;1.28;1.20;;;;;;;19.47;41.11;101515.48;;;;-65
2020/02/05 01:14:27;;;;;;;1.31;1.21;;;;;;;19.45;41.16;101514.19;;;;-66
2020/02/05 01:17:27;;;;;;;1.37;1.25;;;;;;;19.45;41.22;101520.79;;;;-65
2020/02/05 01:20:27;;;;;;;1.40;1.30;;;;;;;19.43;41.24;101521.83;;;;-66
2020/02/05 01:24:27;;;;;;;1.28;1.18;;;;;;;19.41;41.18;101538.91;;;;-66
2020/02/05 01:27:27;;;;;;;1.30;1.20;;;;;;;19.40;41.24;101557.66;;;;-66
2020/02/05 01:30:27;;;;;;;1.37;1.20;;;;;;;19.38;41.24;101560.55;;;;-66
2020/02/05 01:33:27;;;;;;;1.40;1.30;;;;;;;19.38;41.22;101567.98;;;;-63
2020/02/05 01:36:27;;;;;;;1.31;1.20;;;;;;;19.37;41.26;101577.08;;;;-63
2020/02/05 01:39:27;;;;;;;1.43;1.29;;;;;;;19.35;41.29;101586.22;;;;-66
2020/02/05 01:42:27;;;;;;;1.41;1.31;;;;;;;19.33;41.21;101591.39;;;;-65
2020/02/05 01:45:27;;;;;;;1.32;1.21;;;;;;;19.33;41.21;101593.61;;;;-66
2020/02/05 01:48:27;;;;;;;1.45;1.24;;;;;;;19.30;41.30;101603.59;;;;-64
2020/02/05 01:51:27;;;;;;;2.09;1.25;;;;;;;19.30;41.25;101600.70;;;;-65
2020/02/05 01:54:27;;;;;;;1.39;1.29;;;;;;;19.29;41.22;101600.24;;;;-66
2020/02/05 01:57:27;;;;;;;1.40;1.30;;;;;;;19.29;41.21;101602.98;;;;-66
2020/02/05 02:00:27;;;;;;;1.49;1.30;;;;;;;19.27;41.20;101605.63;;;;-66
2020/02/05 02:03:27;;;;;;;1.31;1.21;;;;;;;19.26;41.21;101604.56;;;;-65
2020/02/05 02:06:27;;;;;;;1.52;1.36;;;;;;;19.24;41.22;101604.05;;;;-64
2020/02/05 02:09:27;;;;;;;1.25;1.15;;;;;;;19.24;41.23;101604.94;;;;-66
2020/02/05 02:13:27;;;;;;;1.43;1.33;;;;;;;19.21;41.22;101602.36;;;;-66
2020/02/05 02:16:27;;;;;;;1.65;1.38;;;;;;;19.21;41.19;101605.43;;;;-65
2020/02/05 02:19:29;;;;;;;1.30;1.20;;;;;;;19.20;41.21;101603.62;;;;-65
2020/02/05 02:22:27;;;;;;;1.39;1.29;;;;;;;19.19;41.22;101605.63;;;;-66
2020/02/05 02:25:27;;;;;;;1.37;1.27;;;;;;;19.18;41.22;101607.51;;;;-63
2020/02/05 02:28:27;;;;;;;1.39;1.29;;;;;;;19.17;41.24;101607.73;;;;-65
2020/02/05 02:31:27;;;;;;;1.41;1.31;;;;;;;19.16;41.22;101611.67;;;;-66
2020/02/05 02:34:27;;;;;;;1.50;1.40;;;;;;;19.15;41.24;101616.59;;;;-65
2020/02/05 02:37:27;;;;;;;1.50;1.40;;;;;;;19.14;41.23;101629.25;;;;-66
2020/02/05 02:40:27;;;;;;;1.31;1.21;;;;;;;19.12;41.26;101634.16;;;;-66
2020/02/05 02:43:27;;;;;;;1.40;1.30;;;;;;;19.13;41.23;101640.77;;;;-67
2020/02/05 02:46:27;;;;;;;1.81;1.30;;;;;;;19.11;41.24;101647.32;;;;-66
2020/02/05 02:49:27;;;;;;;1.42;1.32;;;;;;;19.11;41.29;101653.89;;;;-65
2020/02/05 02:52:27;;;;;;;1.37;1.27;;;;;;;19.08;41.26;101654.49;;;;-65
2020/02/05 02:55:27;;;;;;;1.30;1.20;;;;;;;19.08;41.32;101660.56;;;;-66
2020/02/05 02:58:27;;;;;;;1.47;1.37;;;;;;;19.08;41.32;101663.25;;;;-65
2020/02/05 03:01:27;;;;;;;1.39;1.29;;;;;;;19.07;41.28;101676.41;;;;-66
2020/02/05 03:04:27;;;;;;;1.45;1.33;;;;;;;19.05;41.31;101683.49;;;;-66
2020/02/05 03:07:27;;;;;;;1.45;1.24;;;;;;;19.04;41.30;101688.67;;;;-65
2020/02/05 03:10:27;;;;;;;1.38;1.29;;;;;;;19.03;41.27;101690.22;;;;-66
2020/02/05 03:13:27;;;;;;;1.40;1.30;;;;;;;19.03;41.28;101693.89;;;;-66
2020/02/05 03:16:27;;;;;;;1.47;1.35;;;;;;;19.02;41.29;101700.86;;;;-66
2020/02/05 03:19:27;;;;;;;1.30;1.20;;;;;;;19.01;41.32;101703.91;;;;-67
2020/02/05 03:22:27;;;;;;;1.40;1.30;;;;;;;18.99;41.32;101710.33;;;;-65
2020/02/05 03:25:27;;;;;;;1.31;1.21;;;;;;;18.99;41.32;101714.00;;;;-64
2020/02/05 03:28:27;;;;;;;1.39;1.29;;;;;;;18.98;41.35;101724.49;;;;-66
2020/02/05 03:31:27;;;;;;;1.45;1.35;;;;;;;18.98;41.31;101718.78;;;;-66
2020/02/05 03:34:27;;;;;;;1.33;1.23;;;;;;;18.96;41.36;101724.92;;;;-65
2020/02/05 03:37:41;;;;;;;1.30;1.20;;;;;;;18.96;41.32;101733.22;;;;-66
2020/02/05 03:40:39;;;;;;;1.53;1.43;;;;;;;18.95;41.32;101737.73;;;;-65
2020/02/05 03:43:27;;;;;;;1.42;1.30;;;;;;;18.93;41.37;101740.90;;;;-65
2020/02/05 03:46:27;;;;;;;1.30;1.20;;;;;;;18.93;41.34;101741.33;;;;-66
2020/02/05 03:49:27;;;;;;;1.59;1.30;;;;;;;18.91;41.31;101746.38;;;;-66
2020/02/05 03:55:27;;;;;;;1.31;1.21;;;;;;;18.90;41.34;101752.59;;;;-63
2020/02/05 03:58:27;;;;;;;1.55;1.40;;;;;;;18.90;41.35;101760.55;;;;-67
2020/02/05 04:04:31;;;;;;;1.46;1.28;;;;;;;18.89;41.29;101762.22;;;;-64
2020/02/05 04:07:27;;;;;;;1.40;1.30;;;;;;;18.90;41.32;101769.70;;;;-64
2020/02/05 04:10:27;;;;;;;1.40;1.30;;;;;;;18.90;41.33;101769.31;;;;-66
2020/02/05 04:13:27;;;;;;;1.25;1.15;;;;;;;18.90;41.39;101771.65;;;;-64
2020/02/05 04:16:27;;;;;;;1.55;1.40;;;;;;;18.91;41.35;101775.08;;;;-66
2020/02/05 04:19:27;;;;;;;1.47;1.35;;;;;;;18.93;41.40;101782.56;;;;-67
2020/02/05 04:22:27;;;;;;;1.30;1.20;;;;;;;18.95;41.44;101786.28;;;;-66
2020/02/05 04:25:29;;;;;;;1.30;1.20;;;;;;;18.98;41.43;101791.02;;;;-64
2020/02/05 04:28:27;;;;;;;1.21;1.11;;;;;;;19.00;41.46;101792.94;;;;-64
2020/02/05 04:31:40;;;;;;;1.33;1.23;;;;;;;19.05;41.32;101797.23;;;;-65
2020/02/05 04:35:32;;;;;;;1.37;1.27;;;;;;;19.11;41.31;101805.63;;;;-65
2020/02/05 04:38:27;;;;;;;1.31;1.21;;;;;;;19.15;41.35;101811.23;;;;-66
2020/02/05 04:42:27;;;;;;;1.41;1.31;;;;;;;19.18;41.30;101816.63;;;;-64
2020/02/05 04:46:27;;;;;;;1.30;1.20;;;;;;;19.24;41.30;101818.44;;;;-65
2020/02/05 04:52:28;;;;;;;1.35;1.25;;;;;;;19.31;41.28;101825.34;;;;-65
2020/02/05 04:57:28;;;;;;;1.33;1.23;;;;;;;19.39;41.38;101829.45;;;;-64
2020/02/05 05:01:12;;;;;;;1.45;1.28;;;;;;;19.42;41.34;101836.45;;;;-65
2020/02/05 05:04:27;;;;;;;1.30;1.20;;;;;;;19.46;41.37;101835.22;;;;-65
2020/02/05 05:07:27;;;;;;;1.33;1.23;;;;;;;19.50;41.34;101838.11;;;;-65
2020/02/05 05:10:27;;;;;;;1.52;1.29;;;;;;;19.52;41.43;101843.10;;;;-65
2020/02/05 05:13:27;;;;;;;1.30;1.20;;;;;;;19.56;41.33;101849.91;;;;-66
2020/02/05 05:16:44;;;;;;;1.24;1.14;;;;;;;19.58;41.35;101859.61;;;;-65
2020/02/05 05:19:36;;;;;;;1.32;1.22;;;;;;;19.61;41.37;101867.63;;;;-65
2020/02/05 05:23:27;;;;;;;1.29;1.17;;;;;;;19.55;39.73;101880.19;;;;-64
2020/02/05 05:26:28;;;;;;;3.15;1.89;;;;;;;19.23;37.23;101876.89;;;;-64
2020/02/05 05:29:28;;;;;;;2.81;1.74;;;;;;;19.11;36.95;101882.47;;;;-65
2020/02/05 05:32:28;;;;;;;4.24;1.87;;;;;;;19.06;37.14;101885.55;;;;-57
2020/02/05 05:35:27;;;;;;;4.69;1.85;;;;;;;19.16;37.45;101888.28;;;;-56
2020/02/05 05:38:27;;;;;;;4.93;1.89;;;;;;;19.23;38.39;101897.14;;;;-55
2020/02/05 05:41:27;;;;;;;3.31;1.70;;;;;;;19.28;39.00;101897.14;;;;-57
2020/02/05 05:44:27;;;;;;;3.03;1.53;;;;;;;19.31;39.32;101901.72;;;;-57
2020/02/05 05:47:27;;;;;;;2.97;1.49;;;;;;;19.35;39.37;101901.89;;;;-57
2020/02/05 05:52:28;;;;;;;4.39;1.57;;;;;;;19.39;39.46;101912.16;;;;-57
2020/02/05 05:57:27;;;;;;;3.66;1.50;;;;;;;19.42;39.81;101923.86;;;;-57
2020/02/05 06:01:27;;;;;;;1.83;1.34;;;;;;;19.45;39.80;101930.66;;;;-57
2020/02/05 06:04:27;;;;;;;2.27;1.52;;;;;;;19.47;39.82;101937.61;;;;-57
2020/02/05 06:08:28;;;;;;;2.84;1.53;;;;;;;19.48;39.88;101935.88;;;;-57
2020/02/05 06:14:28;;;;;;;2.49;1.50;;;;;;;19.50;39.90;101941.89;;;;-55
2020/02/05 06:19:27;;;;;;;2.46;1.41;;;;;;;19.50;39.88;101940.55;;;;-56
2020/02/05 06:22:27;;;;;;;1.69;1.33;;;;;;;19.50;39.96;101946.64;;;;-57
2020/02/05 06:26:28;;;;;;;2.87;1.37;;;;;;;19.50;39.93;101954.23;;;;-57
2020/02/05 06:29:28;;;;;;;2.19;1.39;;;;;;;19.50;39.97;101956.91;;;;-57
2020/02/05 06:32:28;;;;;;;1.95;1.40;;;;;;;19.49;40.06;101966.86;;;;-57
2020/02/05 06:35:28;;;;;;;2.71;1.50;;;;;;;19.48;40.09;101974.84;;;;-55
2020/02/05 06:38:27;;;;;;;1.93;1.51;;;;;;;19.49;39.94;101982.11;;;;-56
2020/02/05 06:41:27;;;;;;;1.61;1.31;;;;;;;19.49;40.06;101985.63;;;;-55
2020/02/05 06:44:27;;;;;;;2.32;1.55;;;;;;;19.49;40.08;101988.91;;;;-56
2020/02/05 06:47:28;;;;;;;1.85;1.25;;;;;;;19.49;40.03;102000.41;;;;-57
2020/02/05 06:50:28;;;;;;;2.27;1.40;;;;;;;19.48;40.02;102007.68;;;;-57
2020/02/05 06:53:27;;;;;;;1.82;1.36;;;;;;;19.49;40.00;102017.22;;;;-57
2020/02/05 06:56:27;;;;;;;2.09;1.35;;;;;;;19.49;40.03;102020.15;;;;-50
2020/02/05 06:59:27;;;;;;;1.53;1.36;;;;;;;19.50;40.02;102021.43;;;;-50
2020/02/05 07:02:43;;;;;;;1.69;1.40;;;;;;;19.49;40.11;102026.02;;;;-50
2020/02/05 07:05:28;;;;;;;1.42;1.30;;;;;;;19.49;40.12;102032.22;;;;-50
2020/02/05 07:08:27;;;;;;;1.69;1.47;;;;;;;19.50;40.06;102045.39;;;;-50
2020/02/05 07:11:27;;;;;;;1.39;1.29;;;;;;;19.49;40.09;102050.64;;;;-50
2020/02/05 07:14:27;;;;;;;2.12;1.53;;;;;;;19.49;40.05;102054.59;;;;-51
2020/02/05 07:17:27;;;;;;;2.03;1.40;;;;;;;19.49;40.11;102066.90;;;;-50
2020/02/05 07:20:27;;;;;;;2.17;1.45;;;;;;;19.49;40.14;102074.42;;;;-50
2020/02/05 07:23:28;;;;;;;1.97;1.40;;;;;;;19.49;40.08;102086.16;;;;-50
2020/02/05 07:26:27;;;;;;;2.27;1.43;;;;;;;19.50;40.07;102091.08;;;;-50
2020/02/05 07:29:27;;;;;;;2.01;1.37;;;;;;;19.50;40.06;102095.61;;;;-51
2020/02/05 07:32:27;;;;;;;1.79;1.30;;;;;;;19.49;40.14;102100.59;;;;-50
2020/02/05 07:35:28;;;;;;;1.95;1.36;;;;;;;19.49;40.20;102103.75;;;;-49
2020/02/05 07:38:28;;;;;;;2.37;1.50;;;;;;;19.46;40.17;102107.24;;;;-49
2020/02/05 07:41:28;;;;;;;8.60;1.63;;;;;;;19.50;40.24;102110.52;;;;-51
2020/02/05 07:44:27;;;;;;;3.50;1.50;;;;;;;19.53;40.17;102115.11;;;;-48
2020/02/05 07:47:27;;;;;;;2.42;1.60;;;;;;;19.55;40.78;102110.95;;;;-50
2020/02/05 07:50:27;;;;;;;3.75;1.70;;;;;;;19.58;41.05;102114.13;;;;-51
2020/02/05 07:53:27;;;;;;;4.30;1.74;;;;;;;19.61;41.13;102116.52;;;;-56
2020/02/05 07:56:27;;;;;;;2.44;1.56;;;;;;;19.67;41.42;102122.41;;;;-54
2020/02/05 07:59:28;;;;;;;1.67;1.38;;;;;;;19.69;41.31;102122.89;;;;-62
2020/02/05 08:02:28;;;;;;;4.55;1.44;;;;;;;19.72;41.33;102126.39;;;;-56
2020/02/05 08:05:27;;;;;;;2.49;1.45;;;;;;;19.75;41.30;102138.36;;;;-52
2020/02/05 08:08:27;;;;;;;2.07;1.57;;;;;;;19.79;41.48;102143.54;;;;-57
2020/02/05 08:11:27;;;;;;;4.58;1.54;;;;;;;19.81;41.39;102139.78;;;;-47
2020/02/05 08:14:28;;;;;;;2.37;1.69;;;;;;;19.86;41.89;102147.96;;;;-46
2020/02/05 08:17:28;;;;;;;3.24;1.40;;;;;;;19.88;41.40;102148.19;;;;-50
2020/02/05 08:20:27;;;;;;;2.14;1.42;;;;;;;19.91;41.60;102150.70;;;;-49
2020/02/05 08:23:27;;;;;;;2.32;1.53;;;;;;;19.94;41.47;102158.80;;;;-54
2020/02/05 08:26:27;;;;;;;1.91;1.34;;;;;;;19.96;41.31;102155.93;;;;-47
2020/02/05 08:29:28;;;;;;;2.25;1.63;;;;;;;19.98;41.53;102166.66;;;;-46
2020/02/05 08:32:27;;;;;;;3.29;1.54;;;;;;;20.01;41.11;102159.13;;;;-49
2020/02/05 08:35:28;;;;;;;4.09;1.55;;;;;;;20.02;40.84;102168.34;;;;-46
2020/02/05 08:38:28;;;;;;;3.16;1.75;;;;;;;20.02;39.85;102178.64;;;;-50
2020/02/05 08:41:28;;;;;;;3.43;1.57;;;;;;;20.06;41.01;102187.19;;;;-46
2020/02/05 08:44:27;;;;;;;4.11;1.80;;;;;;;20.10;40.88;102186.06;;;;-46
2020/02/05 08:47:27;;;;;;;2.27;1.61;;;;;;;20.13;41.22;102187.33;;;;-46
2020/02/05 08:50:28;;;;;;;1.87;1.41;;;;;;;20.15;41.16;102189.17;;;;-53
2020/02/05 08:53:27;;;;;;;3.15;1.49;;;;;;;20.18;41.23;102200.50;;;;-51
2020/02/05 08:56:28;;;;;;;2.31;1.51;;;;;;;20.19;41.25;102202.01;;;;-52
2020/02/05 08:59:27;;;;;;;2.29;1.50;;;;;;;20.21;41.17;102209.27;;;;-51
2020/02/05 09:02:27;;;;;;;2.43;1.64;;;;;;;20.22;41.15;102210.84;;;;-60
2020/02/05 09:05:27;;;;;;;3.31;1.54;;;;;;;20.23;41.30;102211.20;;;;-57
2020/02/05 09:08:27;;;;;;;2.67;1.47;;;;;;;20.26;41.22;102211.19;;;;-48
2020/02/05 09:11:27;;;;;;;2.41;1.69;;;;;;;20.26;41.24;102205.14;;;;-47
2020/02/05 09:14:28;;;;;;;2.71;1.60;;;;;;;20.28;40.99;102210.93;;;;-49
2020/02/05 09:17:27;;;;;;;1.87;1.58;;;;;;;20.29;41.32;102214.97;;;;-47
2020/02/05 09:20:27;;;;;;;3.08;1.82;;;;;;;20.30;41.06;102217.95;;;;-49
2020/02/05 09:23:28;;;;;;;3.16;1.74;;;;;;;20.28;40.78;102222.00;;;;-49
2020/02/05 09:26:28;;;;;;;3.15;1.67;;;;;;;20.28;40.63;102228.55;;;;-49
2020/02/05 09:29:28;;;;;;;2.49;1.63;;;;;;;20.27;40.57;102244.31;;;;-49
2020/02/05 09:32:28;;;;;;;2.13;1.61;;;;;;;20.26;40.51;102240.32;;;;-49
2020/02/05 09:35:28;;;;;;;2.40;1.59;;;;;;;20.26;40.41;102240.98;;;;-49
2020/02/05 09:38:28;;;;;;;2.05;1.57;;;;;;;20.25;40.38;102239.64;;;;-49
2020/02/05 09:41:28;;;;;;;2.91;1.69;;;;;;;20.24;40.38;102240.18;;;;-50
2020/02/05 09:44:27;;;;;;;3.33;1.59;;;;;;;20.27;40.35;102243.13;;;;-54
2020/02/05 09:47:28;;;;;;;6.35;1.82;;;;;;;20.27;40.43;102244.14;;;;-52
2020/02/05 09:50:30;;;;;;;2.53;1.48;;;;;;;20.26;40.67;102252.68;;;;-51
2020/02/05 09:58:27;;;;;;;2.68;1.57;;;;;;;20.25;40.76;102275.59;;;;-50
2020/02/05 10:01:27;;;;;;;3.29;1.58;;;;;;;20.27;40.79;102291.56;;;;-51
2020/02/05 10:04:27;;;;;;;2.83;1.59;;;;;;;20.26;40.78;102286.69;;;;-50
2020/02/05 10:07:28;;;;;;;2.29;1.42;;;;;;;20.26;40.73;102295.08;;;;-52
2020/02/05 10:10:27;;;;;;;2.51;1.50;;;;;;;20.26;40.77;102298.88;;;;-50
2020/02/05 10:13:27;;;;;;;2.05;1.42;;;;;;;20.27;40.94;102309.63;;;;-50
2020/02/05 10:16:27;;;;;;;1.79;1.41;;;;;;;20.27;40.82;102314.95;;;;-52
2020/02/05 10:19:27;;;;;;;3.26;1.67;;;;;;;20.26;40.84;102323.42;;;;-58
2020/02/05 10:22:28;;;;;;;3.13;1.60;;;;;;;20.27;40.86;102332.84;;;;-52
2020/02/05 10:25:28;;;;;;;2.67;1.60;;;;;;;20.27;40.89;102341.23;;;;-52
2020/02/05 10:28:27;;;;;;;2.77;1.53;;;;;;;20.28;40.94;102352.44;;;;-46
2020/02/05 10:31:27;;;;;;;1.99;1.52;;;;;;;20.29;40.85;102351.50;;;;-49
2020/02/05 10:34:27;;;;;;;1.88;1.55;;;;;;;20.30;40.74;102359.13;;;;-53
2020/02/05 10:37:27;;;;;;;2.12;1.47;;;;;;;20.31;40.74;102361.72;;;;-49
2020/02/05 10:40:27;;;;;;;1.96;1.40;;;;;;;20.33;40.81;102358.11;;;;-47
2020/02/05 10:44:28;;;;;;;3.11;1.60;;;;;;;20.32;40.42;102354.53;;;;-48
2020/02/05 10:47:39;;;;;;;2.63;1.63;;;;;;;20.32;40.40;102351.99;;;;-48
2020/02/05 10:50:33;;;;;;;2.00;1.51;;;;;;;20.31;40.32;102353.28;;;;-49
2020/02/05 10:53:46;;;;;;;2.58;1.65;;;;;;;20.30;40.34;102348.27;;;;-48
2020/02/05 11:01:34;;;;;;;2.11;1.53;;;;;;;20.29;40.13;102357.59;;;;-50
2020/02/05 11:04:52;;;;;;;2.58;1.40;;;;;;;20.29;40.16;102365.77;;;;-50
2020/02/05 11:07:41;;;;;;;3.35;1.59;;;;;;;20.28;40.22;102361.38;;;;-49
2020/02/05 11:10:55;;;;;;;2.23;1.58;;;;;;;20.28;40.17;102364.69;;;;-49
2020/02/05 11:13:34;;;;;;;1.57;1.30;;;;;;;20.26;40.09;102369.91;;;;-49
2020/02/05 11:16:42;;;;;;;2.13;1.52;;;;;;;20.26;40.10;102383.56;;;;-49
2020/02/05 11:23:31;;;;;;;1.83;1.40;;;;;;;20.25;40.14;102385.61;;;;-49
2020/02/05 11:28:27;;;;;;;1.90;1.43;;;;;;;20.25;40.01;102377.73;;;;-49
2020/02/05 11:31:27;;;;;;;1.84;1.47;;;;;;;20.24;40.11;102384.59;;;;-49
2020/02/05 11:34:27;;;;;;;2.09;1.50;;;;;;;20.22;40.15;102381.20;;;;-49
2020/02/05 11:37:27;;;;;;;1.65;1.27;;;;;;;20.23;40.07;102384.16;;;;-49
2020/02/05 11:40:27;;;;;;;1.29;1.19;;;;;;;20.23;40.11;102390.20;;;;-49
2020/02/05 11:43:27;;;;;;;1.95;1.40;;;;;;;20.22;40.13;102395.08;;;;-49
2020/02/05 11:46:27;;;;;;;2.43;1.30;;;;;;;20.23;39.96;102390.72;;;;-49
2020/02/05 11:49:27;;;;;;;1.65;1.32;;;;;;;20.22;39.98;102395.66;;;;-49
2020/02/05 11:52:27;;;;;;;1.47;1.29;;;;;;;20.22;40.00;102399.52;;;;-49
2020/02/05 11:55:27;;;;;;;2.13;1.43;;;;;;;20.22;39.94;102401.54;;;;-49
2020/02/05 11:58:27;;;;;;;1.78;1.41;;;;;;;20.21;40.04;102399.08;;;;-49
2020/02/05 12:01:27;;;;;;;2.04;1.46;;;;;;;20.21;39.92;102398.19;;;;-49
2020/02/05 12:04:27;;;;;;;1.64;1.43;;;;;;;20.21;39.97;102403.44;;;;-52
2020/02/05 12:07:27;;;;;;;1.85;1.39;;;;;;;20.21;39.84;102398.63;;;;-51
2020/02/05 12:10:27;;;;;;;1.61;1.39;;;;;;;20.20;40.01;102402.73;;;;-51
2020/02/05 12:13:27;;;;;;;2.11;1.59;;;;;;;20.19;39.91;102403.08;;;;-51
2020/02/05 12:16:27;;;;;;;1.80;1.35;;;;;;;20.19;39.91;102396.92;;;;-52
2020/02/05 12:19:45;;;;;;;1.86;1.37;;;;;;;20.19;39.93;102396.14;;;;-49
2020/02/05 12:22:39;;;;;;;1.83;1.32;;;;;;;20.18;39.89;102399.20;;;;-48
2020/02/05 12:25:35;;;;;;;1.96;1.43;;;;;;;20.20;39.90;102405.09;;;;-56
2020/02/05 12:31:35;;;;;;;4.03;1.73;;;;;;;20.20;39.47;102405.92;;;;-57
2020/02/05 12:34:51;;;;;;;5.25;1.55;;;;;;;20.20;39.74;102411.20;;;;-59
2020/02/05 12:37:57;;;;;;;1.73;1.32;;;;;;;20.22;39.98;102415.48;;;;-61
2020/02/05 12:45:34;;;;;;;7.31;1.69;;;;;;;20.29;40.30;102413.41;;;;-62
2020/02/05 12:48:34;;;;;;;2.57;1.49;;;;;;;20.29;40.30;102408.44;;;;-52
2020/02/05 12:51:43;;;;;;;2.85;1.55;;;;;;;20.31;40.47;102406.73;;;;-59
2020/02/05 12:54:35;;;;;;;3.22;1.56;;;;;;;20.32;40.11;102405.53;;;;-60
2020/02/05 13:02:53;;;;;;;2.69;1.41;;;;;;;20.36;40.45;102409.28;;;;-61
2020/02/05 13:05:27;;;;;;;5.81;1.47;;;;;;;20.40;40.73;102409.08;;;;-52
2020/02/05 13:08:28;;;;;;;7.27;1.85;;;;;;;20.40;40.09;102409.03;;;;-52
2020/02/05 13:11:27;;;;;;;2.72;1.47;;;;;;;20.42;40.55;102412.12;;;;-50
2020/02/05 13:14:27;;;;;;;4.77;1.61;;;;;;;20.44;40.52;102409.59;;;;-52
2020/02/05 13:17:27;;;;;;;7.55;1.78;;;;;;;20.44;39.90;102410.42;;;;-56
2020/02/05 13:20:27;;;;;;;3.17;1.45;;;;;;;20.46;40.29;102419.36;;;;-56
2020/02/05 13:23:28;;;;;;;3.31;1.59;;;;;;;20.46;40.26;102418.52;;;;-60
2020/02/05 13:26:28;;;;;;;5.73;1.56;;;;;;;20.48;40.51;102420.02;;;;-60
2020/02/05 13:29:27;;;;;;;2.44;1.45;;;;;;;20.48;40.50;102412.63;;;;-61
2020/02/05 13:32:27;;;;;;;3.45;1.59;;;;;;;20.49;40.71;102421.48;;;;-64
2020/02/05 13:35:27;;;;;;;2.73;1.49;;;;;;;20.50;40.61;102422.39;;;;-61
2020/02/05 13:38:27;;;;;;;2.20;1.42;;;;;;;20.51;40.50;102420.12;;;;-58
2020/02/05 13:41:27;;;;;;;2.85;1.51;;;;;;;20.51;40.56;102410.71;;;;-58
2020/02/05 13:44:27;;;;;;;2.77;1.50;;;;;;;20.53;40.63;102410.47;;;;-53
2020/02/05 13:47:27;;;;;;;5.06;1.61;;;;;;;20.55;40.79;102413.48;;;;-54
2020/02/05 13:50:27;;;;;;;4.95;1.48;;;;;;;20.56;40.48;102414.73;;;;-58
2020/02/05 13:53:27;;;;;;;3.86;1.42;;;;;;;20.58;40.33;102407.73;;;;-59
2020/02/05 13:56:27;;;;;;;7.90;1.74;;;;;;;20.57;40.26;102404.72;;;;-58
2020/02/05 13:59:27;;;;;;;5.22;1.58;;;;;;;20.56;40.31;102407.27;;;;-58
2020/02/05 14:02:27;;;;;;;4.26;1.83;;;;;;;20.57;40.44;102399.56;;;;-57
2020/02/05 14:05:28;;;;;;;2.61;1.51;;;;;;;20.56;40.38;102400.61;;;;-58
2020/02/05 14:08:27;;;;;;;3.74;1.49;;;;;;;20.56;40.37;102404.74;;;;-52
2020/02/05 14:11:27;;;;;;;4.64;1.59;;;;;;;20.56;40.56;102404.74;;;;-56
2020/02/05 14:14:27;;;;;;;2.59;1.46;;;;;;;20.56;40.53;102409.11;;;;-55
2020/02/05 14:17:27;;;;;;;3.66;1.56;;;;;;;20.56;40.56;102411.20;;;;-56
2020/02/05 14:20:27;;;;;;;3.56;1.35;;;;;;;20.55;40.58;102411.39;;;;-58
2020/02/05 14:23:27;;;;;;;4.54;1.49;;;;;;;20.56;40.53;102408.10;;;;-55
2020/02/05 14:26:27;;;;;;;3.43;2.22;;;;;;;20.56;40.36;102413.89;;;;-55
2020/02/05 14:29:27;;;;;;;2.51;1.36;;;;;;;20.55;40.24;102407.14;;;;-55
2020/02/05 14:32:27;;;;;;;2.79;1.55;;;;;;;20.52;40.17;102411.78;;;;-55
2020/02/05 14:35:27;;;;;;;4.31;1.57;;;;;;;20.50;39.27;102409.13;;;;-55
2020/02/05 14:38:27;;;;;;;4.55;1.42;;;;;;;20.49;39.57;102408.61;;;;-55
2020/02/05 14:41:28;;;;;;;2.67;1.55;;;;;;;20.47;39.80;102413.78;;;;-54
2020/02/05 14:44:27;;;;;;;3.53;1.49;;;;;;;20.47;39.88;102415.02;;;;-54
2020/02/05 14:47:27;;;;;;;3.23;1.37;;;;;;;20.46;39.86;102416.09;;;;-54
2020/02/05 14:50:27;;;;;;;1.66;1.26;;;;;;;20.44;39.90;102413.52;;;;-49
2020/02/05 14:53:28;;;;;;;4.62;1.44;;;;;;;20.44;39.82;102416.13;;;;-49
2020/02/05 14:56:27;;;;;;;2.67;1.51;;;;;;;20.43;39.91;102418.98;;;;-49
2020/02/05 14:59:27;;;;;;;2.18;1.47;;;;;;;20.43;39.81;102415.72;;;;-49
2020/02/05 15:02:27;;;;;;;2.83;1.31;;;;;;;20.41;39.88;102411.20;;;;-49
2020/02/05 15:05:27;;;;;;;2.61;1.40;;;;;;;20.41;39.81;102418.92;;;;-46
2020/02/05 15:08:27;;;;;;;2.10;1.40;;;;;;;20.39;39.90;102416.55;;;;-49
2020/02/05 15:11:27;;;;;;;1.67;1.20;;;;;;;20.39;39.83;102420.42;;;;-49
2020/02/05 15:14:27;;;;;;;3.22;1.35;;;;;;;20.39;39.80;102423.67;;;;-49
2020/02/05 15:17:27;;;;;;;2.82;1.30;;;;;;;20.38;39.88;102423.20;;;;-49
2020/02/05 15:20:27;;;;;;;2.07;1.32;;;;;;;20.38;39.78;102424.88;;;;-48
2020/02/05 15:23:27;;;;;;;1.48;1.20;;;;;;;20.37;39.84;102426.70;;;;-49
2020/02/05 15:26:27;;;;;;;2.51;1.35;;;;;;;20.36;39.85;102429.61;;;;-49
2020/02/05 15:29:27;;;;;;;3.03;1.38;;;;;;;20.36;39.88;102427.42;;;;-49
2020/02/05 15:32:27;;;;;;;2.75;1.41;;;;;;;20.36;39.93;102429.81;;;;-49
2020/02/05 15:35:28;;;;;;;2.46;1.37;;;;;;;20.36;39.79;102430.78;;;;-49
2020/02/05 15:38:27;;;;;;;2.22;1.31;;;;;;;20.35;39.90;102430.88;;;;-49
2020/02/05 15:41:27;;;;;;;2.53;1.41;;;;;;;20.36;39.85;102434.52;;;;-49
2020/02/05 15:44:27;;;;;;;1.95;1.20;;;;;;;20.35;39.80;102438.58;;;;-50
2020/02/05 15:47:27;;;;;;;1.39;1.22;;;;;;;20.35;39.89;102439.60;;;;-49
2020/02/05 15:50:28;;;;;;;1.83;1.23;;;;;;;20.35;39.82;102441.34;;;;-56
2020/02/05 15:53:28;;;;;;;3.05;1.46;;;;;;;20.37;40.22;102442.41;;;;-50
2020/02/05 15:56:27;;;;;;;2.29;1.23;;;;;;;20.41;40.43;102447.76;;;;-57
2020/02/05 15:59:27;;;;;;;5.30;1.45;;;;;;;20.42;40.35;102450.69;;;;-56
2020/02/05 16:02:27;;;;;;;2.09;1.39;;;;;;;20.45;40.29;102448.66;;;;-52
2020/02/05 16:05:27;;;;;;;1.91;1.44;;;;;;;20.48;40.57;102452.91;;;;-54
2020/02/05 16:08:27;;;;;;;4.23;1.67;;;;;;;20.23;35.05;102450.17;;;;-47
2020/02/05 16:11:27;;;;;;;12.24;1.91;;;;;;;20.26;37.61;102447.83;;;;-57
2020/02/05 16:14:27;;;;;;;7.94;1.58;;;;;;;20.29;38.19;102444.80;;;;-56
2020/02/05 16:17:27;;;;;;;2.93;1.50;;;;;;;20.32;38.69;102445.47;;;;-52
2020/02/05 16:20:27;;;;;;;2.91;1.47;;;;;;;20.33;38.95;102442.31;;;;-55
2020/02/05 16:23:27;;;;;;;2.35;1.37;;;;;;;20.35;39.11;102440.16;;;;-54
2020/02/05 16:26:27;;;;;;;3.03;1.53;;;;;;;20.36;39.18;102446.39;;;;-50
2020/02/05 16:29:27;;;;;;;2.40;1.41;;;;;;;20.38;39.20;102446.59;;;;-55
2020/02/05 16:32:27;;;;;;;3.62;1.51;;;;;;;20.39;39.29;102444.09;;;;-55
2020/02/05 16:35:27;;;;;;;2.43;1.57;;;;;;;20.40;39.35;102445.62;;;;-53
2020/02/05 16:40:27;;;;;;;3.80;1.49;;;;;;;20.43;39.41;102447.10;;;;-52
2020/02/05 16:43:27;;;;;;;2.23;1.50;;;;;;;20.44;39.40;102449.77;;;;-51
2020/02/05 16:46:27;;;;;;;4.45;1.87;;;;;;;20.45;39.52;102451.78;;;;-61
2020/02/05 16:49:27;;;;;;;2.37;1.49;;;;;;;20.45;39.44;102449.34;;;;-52
2020/02/05 16:52:27;;;;;;;3.34;1.49;;;;;;;20.45;39.49;102450.28;;;;-50
2020/02/05 16:55:27;;;;;;;3.09;1.63;;;;;;;20.46;39.48;102450.08;;;;-52
2020/02/05 16:58:27;;;;;;;3.40;1.73;;;;;;;20.47;39.57;102453.01;;;;-58
2020/02/05 17:01:27;;;;;;;4.35;1.64;;;;;;;20.48;39.45;102452.74;;;;-48
2020/02/05 17:04:27;;;;;;;4.36;1.83;;;;;;;20.48;39.49;102454.36;;;;-48
2020/02/05 17:07:41;;;;;;;4.03;1.87;;;;;;;20.47;39.45;102451.72;;;;-48
2020/02/05 17:10:41;;;;;;;5.37;1.77;;;;;;;20.47;39.48;102454.57;;;;-50
2020/02/05 17:13:38;;;;;;;3.06;1.57;;;;;;;20.48;39.41;102463.59;;;;-57
2020/02/05 17:16:38;;;;;;;2.80;1.70;;;;;;;20.49;39.43;102470.66;;;;-53
2020/02/05 17:20:13;;;;;;;4.26;1.67;;;;;;;20.48;39.33;102471.88;;;;-47
2020/02/05 17:22:34;;;;;;;3.53;1.70;;;;;;;20.48;39.42;102469.80;;;;-50
2020/02/05 17:25:39;;;;;;;2.69;1.73;;;;;;;20.48;39.50;102472.77;;;;-55
2020/02/05 17:28:47;;;;;;;3.14;1.71;;;;;;;20.46;38.75;102470.67;;;;-53
2020/02/05 17:31:37;;;;;;;4.05;1.85;;;;;;;20.44;38.84;102471.01;;;;-50
2020/02/05 17:34:37;;;;;;;3.41;1.47;;;;;;;20.43;39.01;102470.90;;;;-50
2020/02/05 17:45:30;;;;;;;2.89;1.75;;;;;;;20.46;39.53;102466.12;;;;-50
2020/02/05 17:48:27;;;;;;;2.75;1.62;;;;;;;20.47;39.51;102469.73;;;;-50
2020/02/05 17:51:28;;;;;;;2.77;1.79;;;;;;;20.47;39.61;102472.56;;;;-50
2020/02/05 17:54:27;;;;;;;2.85;1.67;;;;;;;20.50;39.78;102482.66;;;;-47
2020/02/05 17:57:27;;;;;;;3.54;1.85;;;;;;;20.50;39.48;102485.06;;;;-50